Change the Weather History Date:

Monday, April 28, 2014

  Actual Average (KLNR) Record (KLNR)
Temperature  
Mean Temperature 46 °F -  
Max Temperature 50 °F 62 °F 86 °F (2004)
Min Temperature 42 °F 39 °F 23 °F (2005)
Degree Days  
Heating Degree Days 19    
Moisture  
Dew Point 40 °F    
Average Humidity 81    
Maximum Humidity 87    
Minimum Humidity 62    
Precipitation  
Precipitation 0.13 in - - ()
Sea Level Pressure  
Sea Level Pressure 29.60 in    
Wind  
Wind Speed 21 mph (East)    
Max Wind Speed 31 mph    
Max Gust Speed 43 mph    
Visibility 9 miles    
Events Rain    
Averages and records for this station are not official NWS values.
T = Trace of Precipitation, MM = Missing Value Source: NWS Daily Summary

Daily Weather History Graph

Daily Weather History Graph

Search for Another Location

Airport or City:

Trip Planner

Search our weather history database for the weather conditions in past years. The results will help you decide how hot, cold, wet, or windy it might be!

Date:

Astronomy

Apr. 28, 2014 Rise Set
Actual Time 5:59 AM CDT 7:58 PM CDT
Civil Twilight 5:28 AM CDT 8:29 PM CDT
Nautical Twilight 4:51 AM CDT 9:06 PM CDT
Astronomical Twilight 4:10 AM CDT 9:47 PM CDT
Moon 5:38 AM CDT (4/28) 7:35 PM CDT (4/28)
Length of Visible Light 15h 00m
Length of Day
13h 59m
Waning Crescent, 0% of the Moon is Illuminated
Apr 28
Waning Crescent
Apr 29
New
May 6
First Quarter
May 14
Full
May 21
Last Quarter

Hourly Weather History & Observations

Time (CDT) Temp. Windchill Dew Point Humidity Pressure Visibility Wind Dir Wind Speed Gust Speed Precip Events Conditions
12:15 AM 46.4 °F 38.5 °F 39.2 °F 76% 29.73 in 10.0 mi East 21.9 mph 31.1 mph N/A Rain Light Rain
12:35 AM 46.4 °F 38.7 °F 37.4 °F 71% 29.73 in 10.0 mi East 20.7 mph 32.2 mph N/A   Overcast
12:55 AM 46.4 °F 38.5 °F 37.4 °F 71% 29.73 in 10.0 mi East 21.9 mph 29.9 mph N/A   Overcast
1:15 AM 46.4 °F 39.8 °F 37.4 °F 71% 29.73 in 10.0 mi East 16.1 mph 26.5 mph N/A   Overcast
1:35 AM 46.4 °F 39.5 °F 35.6 °F 66% 29.73 in 10.0 mi East 17.3 mph 25.3 mph N/A   Overcast
1:55 AM 46.4 °F 39.2 °F 35.6 °F 66% 29.72 in 10.0 mi East 18.4 mph 26.5 mph N/A   Overcast
2:15 AM 48.2 °F - 35.6 °F 62% 29.70 in 10.0 mi East 21.9 mph 27.6 mph N/A   Overcast
2:35 AM 46.4 °F 38.3 °F 35.6 °F 66% 29.68 in 10.0 mi East 23.0 mph 27.6 mph N/A   Overcast
2:55 AM 46.4 °F 38.1 °F 37.4 °F 71% 29.67 in 10.0 mi East 24.2 mph 32.2 mph N/A   Overcast
3:10 AM 46.4 °F 38.1 °F 37.4 °F 71% 29.67 in 10.0 mi East 24.2 mph 32.2 mph N/A   Overcast
3:35 AM 44.6 °F 37.2 °F 39.2 °F 81% 29.68 in 5.0 mi East 17.3 mph 35.7 mph 0.01 in Rain Rain
3:55 AM 44.6 °F 37.4 °F 39.2 °F 81% 29.68 in 10.0 mi East 16.1 mph 25.3 mph 0.01 in   Overcast
4:15 AM 44.6 °F 37.2 °F 39.2 °F 81% 29.68 in 10.0 mi East 17.3 mph 26.5 mph N/A   Overcast
4:35 AM 44.6 °F 36.9 °F 37.4 °F 76% 29.67 in 10.0 mi East 18.4 mph 26.5 mph N/A   Overcast
5:15 AM 42.8 °F 34.3 °F 39.2 °F 87% 29.66 in 5.0 mi East 19.6 mph 25.3 mph 0.02 in Rain Rain
5:35 AM 42.8 °F 34.3 °F 39.2 °F 87% 29.65 in 7.0 mi East 19.6 mph 24.2 mph 0.03 in Rain Light Rain
5:55 AM 42.8 °F 35.1 °F 37.4 °F 81% 29.66 in 7.0 mi East 16.1 mph 26.5 mph 0.03 in Rain Light Rain
6:15 AM 42.8 °F 34.8 °F 37.4 °F 81% 29.66 in 10.0 mi East 17.3 mph 25.3 mph N/A Rain Light Rain
6:35 AM 42.8 °F 34.8 °F 37.4 °F 81% 29.66 in 10.0 mi East 17.3 mph 27.6 mph N/A Rain Light Rain
6:55 AM 42.8 °F 34.5 °F 37.4 °F 81% 29.65 in 7.0 mi East 18.4 mph 25.3 mph N/A Rain Rain
7:15 AM 42.8 °F 33.3 °F 37.4 °F 81% 29.64 in 5.0 mi East 24.2 mph 33.4 mph N/A Rain Light Rain
7:30 AM 42.8 °F 33.3 °F 37.4 °F 81% 29.64 in 2.0 mi East 24.2 mph 32.2 mph N/A Rain Light Rain
7:55 AM 42.8 °F 33.3 °F 37.4 °F 81% 29.62 in 3.0 mi East 24.2 mph 33.4 mph 0.01 in Rain Light Rain
8:15 AM 42.8 °F 33.3 °F 37.4 °F 81% 29.58 in 10.0 mi East 24.2 mph 38.0 mph N/A   Overcast
8:35 AM 42.8 °F 32.1 °F 37.4 °F 81% 29.56 in 10.0 mi East 31.1 mph 42.6 mph N/A   Overcast
8:55 AM 42.8 °F 33.1 °F 37.4 °F 81% 29.57 in 10.0 mi East 25.3 mph 34.5 mph N/A   Overcast
9:15 AM 42.8 °F 33.8 °F 37.4 °F 81% 29.59 in 10.0 mi East 21.9 mph 34.5 mph N/A   Overcast
9:35 AM 42.8 °F 33.5 °F 39.2 °F 87% 29.60 in 10.0 mi East 23.0 mph 31.1 mph N/A   Overcast
9:55 AM 42.8 °F 34.3 °F 39.2 °F 87% 29.61 in 10.0 mi East 19.6 mph 28.8 mph N/A   Drizzle
10:15 AM 42.8 °F 34.0 °F 39.2 °F 87% 29.61 in 7.0 mi East 20.7 mph 34.5 mph N/A Rain Light Rain
10:35 AM 44.6 °F 35.9 °F 41.0 °F 87% 29.61 in 4.0 mi East 23.0 mph 31.1 mph 0.01 in Rain Light Rain
11:15 AM 44.6 °F 36.6 °F 41.0 °F 87% 29.62 in 7.0 mi East 19.6 mph 29.9 mph 0.01 in Rain Light Rain
11:55 AM 44.6 °F 36.6 °F 41.0 °F 87% 29.62 in 7.0 mi East 19.6 mph 29.9 mph 0.03 in Rain Light Rain
12:15 PM 44.6 °F 35.5 °F 41.0 °F 87% 29.61 in 10.0 mi East 25.3 mph 31.1 mph N/A   Overcast
12:35 PM 46.4 °F 39.8 °F 41.0 °F 81% 29.62 in 10.0 mi East 16.1 mph 29.9 mph N/A   Overcast
1:15 PM 44.6 °F 36.6 °F 41.0 °F 87% 29.60 in 10.0 mi East 19.6 mph 28.8 mph N/A   Overcast
1:35 PM 44.6 °F 36.1 °F 41.0 °F 87% 29.59 in 10.0 mi East 21.9 mph 29.9 mph N/A   Overcast
1:55 PM 46.4 °F 38.7 °F 41.0 °F 81% 29.58 in 10.0 mi East 20.7 mph 41.4 mph N/A   Overcast
2:15 PM 44.6 °F 36.4 °F 41.0 °F 87% 29.59 in 7.0 mi East 20.7 mph 33.4 mph N/A   Overcast
2:35 PM 44.6 °F 36.9 °F 41.0 °F 87% 29.60 in 10.0 mi East 18.4 mph 32.2 mph N/A   Overcast
2:55 PM 44.6 °F 37.8 °F 41.0 °F 87% 29.60 in 10.0 mi East 15.0 mph 28.8 mph N/A   Overcast
3:15 PM 44.6 °F 36.4 °F 41.0 °F 87% 29.59 in 10.0 mi East 20.7 mph 29.9 mph N/A   Overcast
3:35 PM 46.4 °F 38.1 °F 41.0 °F 81% 29.56 in 7.0 mi ENE 24.2 mph 31.1 mph N/A   Overcast
3:55 PM 46.4 °F 38.3 °F 41.0 °F 81% 29.56 in 10.0 mi East 23.0 mph 32.2 mph N/A   Overcast
4:15 PM 46.4 °F 38.3 °F 41.0 °F 81% 29.55 in 10.0 mi East 23.0 mph 29.9 mph N/A   Overcast
4:35 PM 46.4 °F 37.4 °F 41.0 °F 81% 29.50 in 10.0 mi ENE 28.8 mph 35.7 mph N/A   Overcast
4:55 PM 48.2 °F - 41.0 °F 76% 29.54 in 10.0 mi ENE 23.0 mph 29.9 mph N/A   Overcast
5:15 PM 48.2 °F - 41.0 °F 76% 29.55 in 10.0 mi East 20.7 mph 32.2 mph N/A   Overcast
5:35 PM 50.0 °F - 41.0 °F 71% 29.55 in 10.0 mi East 17.3 mph 27.6 mph N/A   Overcast
5:55 PM 48.2 °F - 41.0 °F 76% 29.55 in 7.0 mi East 23.0 mph 27.6 mph N/A Rain Light Rain
6:15 PM 48.2 °F - 41.0 °F 76% 29.55 in 7.0 mi ENE 23.0 mph 28.8 mph N/A Rain Light Rain
6:35 PM 46.4 °F 37.9 °F 41.0 °F 81% 29.49 in 7.0 mi NE 25.3 mph 35.7 mph N/A Rain Light Rain
6:55 PM 46.4 °F 37.9 °F 41.0 °F 81% 29.52 in 10.0 mi ENE 25.3 mph 38.0 mph N/A   Mostly Cloudy
7:15 PM 46.4 °F 38.1 °F 41.0 °F 81% 29.54 in 10.0 mi East 24.2 mph 33.4 mph N/A   Mostly Cloudy
7:35 PM 46.4 °F 38.1 °F 41.0 °F 81% 29.52 in 10.0 mi ENE 24.2 mph 35.7 mph N/A   Overcast
7:55 PM 46.4 °F 37.9 °F 41.0 °F 81% 29.54 in 7.0 mi East 25.3 mph 33.4 mph N/A   Overcast
8:15 PM 46.4 °F 37.9 °F 41.0 °F 81% 29.54 in 10.0 mi ENE 25.3 mph 32.2 mph 0.01 in Rain Light Rain
8:35 PM 46.4 °F 38.3 °F 41.0 °F 81% 29.55 in 10.0 mi ENE 23.0 mph 35.7 mph 0.02 in   Light Drizzle
8:55 PM 44.6 °F 35.3 °F 41.0 °F 87% 29.54 in 10.0 mi ENE 26.5 mph 41.4 mph 0.03 in   Overcast
9:15 PM 44.6 °F 34.7 °F 41.0 °F 87% 29.53 in 10.0 mi ENE 29.9 mph 35.7 mph N/A   Overcast
9:35 PM 44.6 °F 35.3 °F 41.0 °F 87% 29.53 in 10.0 mi ENE 26.5 mph 35.7 mph N/A   Overcast
9:55 PM 44.6 °F 35.7 °F 41.0 °F 87% 29.54 in 10.0 mi ENE 24.2 mph 41.4 mph N/A   Overcast
10:15 PM 44.6 °F 35.7 °F 41.0 °F 87% 29.55 in 10.0 mi East 24.2 mph 34.5 mph N/A   Overcast
10:35 PM 44.6 °F 36.1 °F 41.0 °F 87% 29.54 in 10.0 mi East 21.9 mph 34.5 mph N/A   Overcast
10:55 PM 44.6 °F 35.9 °F 41.0 °F 87% 29.54 in 10.0 mi East 23.0 mph 28.8 mph 0.01 in   Overcast
11:15 PM 46.4 °F 38.3 °F 41.0 °F 81% 29.54 in 10.0 mi East 23.0 mph 27.6 mph N/A   Overcast
11:35 PM 44.6 °F 37.2 °F 41.0 °F 87% 29.54 in 10.0 mi East 17.3 mph 27.6 mph N/A   Overcast
11:55 PM 44.6 °F 36.6 °F 41.0 °F 87% 29.54 in 10.0 mi ENE 19.6 mph 23.0 mph N/A   Overcast